Time;durP1;ratioP1;P1;durP2;ratioP2;P2;SDS_P1;SDS_P2;PMS_P1;PMS_P2;Temp;Humidity;BMP_temperature;BMP_pressure;BME280_temperature;BME280_humidity;BME280_pressure;Samples;Min_cycle;Max_cycle;Signal;HPM_P1;HPM_P2
2023/09/14 00:00:08;;;;;;;2.53;1.00;;;;;;;12.74;100.00;98982.22;15165764;19;2004045;-49
2023/09/14 00:05:34;;;;;;;2.22;1.10;;;;;;;12.73;100.00;98989.47;15270111;19;20018;-51
2023/09/14 00:11:12;;;;;;;2.38;0.90;;;;;;;12.70;100.00;98975.44;15262217;19;20116;-52
2023/09/14 00:16:37;;;;;;;3.53;1.08;;;;;;;12.70;100.00;98989.78;15267463;19;20078;-50
2023/09/14 00:22:02;;;;;;;1.83;1.02;;;;;;;12.68;100.00;98986.41;15266125;19;20106;-52
2023/09/14 00:27:29;;;;;;;2.90;1.00;;;;;;;12.67;100.00;98975.75;15266722;19;20090;-49
2023/09/14 00:32:55;;;;;;;3.38;1.05;;;;;;;12.62;100.00;98952.78;15281717;19;20014;-51
2023/09/14 00:38:22;;;;;;;2.80;1.10;;;;;;;12.58;100.00;98953.25;15281477;19;20407;-51
2023/09/14 00:43:49;;;;;;;1.60;1.02;;;;;;;12.48;100.00;98935.28;15277050;19;20038;-50
2023/09/14 00:49:14;;;;;;;2.75;1.20;;;;;;;12.45;100.00;98942.88;15281696;19;20024;-49
2023/09/14 00:54:38;;;;;;;2.05;1.05;;;;;;;12.39;100.00;98930.00;15280208;19;20479;-52
2023/09/14 01:00:10;;;;;;;1.58;1.10;;;;;;;12.35;100.00;98923.22;15272271;19;20082;-51
2023/09/14 01:05:37;;;;;;;2.92;1.02;;;;;;;12.26;100.00;98925.88;15280996;19;20014;-48
2023/09/14 01:11:08;;;;;;;2.47;1.13;;;;;;;12.18;100.00;98902.38;15275603;19;20010;-52
2023/09/14 01:16:42;;;;;;;3.08;1.38;;;;;;;12.11;100.00;98906.69;15273004;19;20018;-54
2023/09/14 01:22:30;;;;;;;2.17;1.10;;;;;;;11.98;100.00;98904.44;15281341;19;20331;-55
2023/09/14 01:28:09;;;;;;;1.90;1.27;;;;;;;11.88;100.00;98914.47;15276895;19;20042;-53
2023/09/14 01:33:34;;;;;;;3.22;1.33;;;;;;;11.79;100.00;98923.50;15274277;19;20880;-51
2023/09/14 01:38:59;;;;;;;2.25;1.10;;;;;;;11.71;100.00;98921.59;15277022;19;20022;-56
2023/09/14 01:44:27;;;;;;;2.05;1.40;;;;;;;11.63;100.00;98919.66;15278517;19;20372;-51
2023/09/14 01:49:53;;;;;;;2.60;1.35;;;;;;;11.59;100.00;98918.28;15274672;19;20018;-56
2023/09/14 01:55:18;;;;;;;4.25;1.35;;;;;;;11.53;100.00;98930.53;15277772;19;20618;-59
2023/09/14 02:00:45;;;;;;;2.45;1.15;;;;;;;11.43;100.00;98937.88;15270814;19;20493;-56
2023/09/14 02:06:10;;;;;;;2.78;1.15;;;;;;;11.36;100.00;98940.31;15269742;19;20015;-54
2023/09/14 02:11:41;;;;;;;2.80;1.30;;;;;;;11.26;100.00;98944.94;15271929;19;20093;-58
2023/09/14 02:17:09;;;;;;;4.05;1.40;;;;;;;11.13;100.00;98956.13;15274613;19;20480;-55
2023/09/14 02:22:36;;;;;;;4.25;1.40;;;;;;;10.99;100.00;98967.41;15269258;19;20122;-55
2023/09/14 02:28:02;;;;;;;3.17;1.50;;;;;;;10.92;100.00;98997.69;15278297;19;20086;-53
2023/09/14 02:33:30;;;;;;;2.60;1.30;;;;;;;10.88;100.00;98995.41;15276485;19;20006;-57
2023/09/14 02:38:56;;;;;;;2.05;1.25;;;;;;;10.82;100.00;99004.09;15267488;19;20082;-56
2023/09/14 02:44:20;;;;;;;3.50;1.23;;;;;;;10.74;100.00;99000.31;15276635;19;20011;-58
2023/09/14 02:49:47;;;;;;;2.22;1.33;;;;;;;10.69;100.00;99010.66;15273580;19;20400;-53
2023/09/14 02:55:13;;;;;;;2.75;1.50;;;;;;;10.64;100.00;99016.50;15269474;19;20547;-56
2023/09/14 03:00:40;;;;;;;5.18;1.70;;;;;;;10.55;100.00;99020.09;15273486;19;20015;-54
2023/09/14 03:06:10;;;;;;;5.53;1.75;;;;;;;10.47;100.00;99028.03;15275584;19;20011;-53
2023/09/14 03:11:42;;;;;;;4.00;1.60;;;;;;;10.38;100.00;99037.84;15260385;19;20023;-55
2023/09/14 03:17:07;;;;;;;2.67;1.58;;;;;;;10.30;100.00;99061.91;15266974;19;20743;-53
2023/09/14 03:22:35;;;;;;;2.13;1.50;;;;;;;10.25;100.00;99069.59;15270857;19;20031;-54
2023/09/14 03:28:01;;;;;;;4.50;1.80;;;;;;;10.17;100.00;99062.22;15266639;19;20054;-52
2023/09/14 03:33:27;;;;;;;4.15;2.00;;;;;;;10.10;100.00;99072.72;15274378;19;20014;-57
2023/09/14 03:38:54;;;;;;;2.72;1.77;;;;;;;10.03;100.00;99095.81;15269795;19;20018;-53
2023/09/14 03:44:20;;;;;;;2.92;1.92;;;;;;;9.98;100.00;99116.91;15264545;19;20019;-55
2023/09/14 03:49:45;;;;;;;5.38;2.30;;;;;;;9.90;100.00;99130.22;15273339;19;20010;-58
2023/09/14 03:55:13;;;;;;;3.83;1.90;;;;;;;9.86;100.00;99135.88;15271288;19;20090;-53
2023/09/14 04:00:38;;;;;;;2.35;1.60;;;;;;;9.83;100.00;99132.63;15268684;19;20015;-53
2023/09/14 04:06:04;;;;;;;3.22;1.65;;;;;;;9.79;100.00;99132.06;15268423;19;20030;-57
2023/09/14 04:11:38;;;;;;;3.72;1.80;;;;;;;9.75;100.00;99152.16;14757964;19;10000644;-55
2023/09/14 04:17:05;;;;;;;4.30;1.80;;;;;;;9.72;100.00;99155.09;15262367;19;20018;-55
2023/09/14 04:22:31;;;;;;;2.67;1.73;;;;;;;9.63;100.00;99154.13;15264186;19;20487;-53
2023/09/14 04:27:58;;;;;;;3.97;2.05;;;;;;;9.54;100.00;99163.84;15265945;19;20042;-59
2023/09/14 04:33:25;;;;;;;3.28;2.13;;;;;;;9.51;100.00;99163.28;15268053;19;20010;-52
2023/09/14 04:38:50;;;;;;;5.55;2.13;;;;;;;9.47;100.00;99162.69;15265486;19;20580;-51
2023/09/14 04:44:17;;;;;;;3.90;2.25;;;;;;;9.43;100.00;99171.16;15268078;19;20018;-55
2023/09/14 04:49:42;;;;;;;2.53;1.80;;;;;;;9.36;100.00;99162.78;15266119;19;20442;-53
2023/09/14 04:55:07;;;;;;;5.60;2.20;;;;;;;9.32;100.00;99169.44;15264299;19;20098;-57
2023/09/14 05:00:36;;;;;;;3.42;2.53;;;;;;;9.32;100.00;99174.81;15262497;19;20050;-55
2023/09/14 05:06:04;;;;;;;4.30;2.50;;;;;;;9.30;100.00;99185.69;15259292;19;20019;-56
2023/09/14 05:11:29;;;;;;;3.47;2.17;;;;;;;9.30;100.00;99193.75;15261291;19;20859;-53
2023/09/14 05:16:56;;;;;;;3.70;1.98;;;;;;;9.27;100.00;99210.16;15270213;19;20018;-59
2023/09/14 05:22:25;;;;;;;4.28;1.92;;;;;;;9.26;100.00;99203.09;15276955;19;20368;-55
2023/09/14 05:27:51;;;;;;;4.35;1.92;;;;;;;9.26;100.00;99211.16;15280492;19;20021;-58
2023/09/14 05:33:18;;;;;;;3.78;1.75;;;;;;;9.25;100.00;99223.72;15274088;19;20025;-58
2023/09/14 05:38:44;;;;;;;3.38;2.10;;;;;;;9.28;100.00;99232.53;15279802;19;20023;-59
2023/09/14 05:44:10;;;;;;;4.35;2.50;;;;;;;9.30;100.00;99233.25;15275332;19;20385;-55
2023/09/14 05:49:41;;;;;;;3.47;2.13;;;;;;;9.32;100.00;99240.19;15268553;19;20019;-57
2023/09/14 05:55:10;;;;;;;3.28;2.45;;;;;;;9.39;100.00;99245.88;15276950;19;20020;-54
2023/09/14 06:00:34;;;;;;;4.97;2.40;;;;;;;9.44;100.00;99262.47;15277286;19;20050;-55
2023/09/14 06:06:01;;;;;;;5.25;2.50;;;;;;;9.49;100.00;99272.84;15269735;19;20426;-54
2023/09/14 06:11:35;;;;;;;3.30;2.20;;;;;;;9.55;100.00;99275.84;15272757;19;20046;-57
2023/09/14 06:17:00;;;;;;;5.10;2.38;;;;;;;9.64;100.00;99290.31;15274483;19;20533;-54
2023/09/14 06:22:28;;;;;;;5.78;2.70;;;;;;;9.73;100.00;99302.13;15270225;19;20757;-53
2023/09/14 06:27:54;;;;;;;4.20;2.60;;;;;;;9.81;100.00;99307.72;15276802;19;20642;-55
2023/09/14 06:33:19;;;;;;;4.32;2.38;;;;;;;9.90;100.00;99314.09;15274810;19;20093;-57
2023/09/14 06:38:47;;;;;;;3.60;2.42;;;;;;;10.01;100.00;99321.25;15267171;19;20022;-55
2023/09/14 06:44:13;;;;;;;5.43;2.30;;;;;;;10.10;100.00;99324.97;15271928;19;20421;-52
2023/09/14 06:49:38;;;;;;;3.92;2.10;;;;;;;10.21;100.00;99321.31;15274621;19;20074;-58
2023/09/14 06:55:10;;;;;;;6.57;2.20;;;;;;;10.31;100.00;99319.50;15267920;19;20449;-60
2023/09/14 07:00:37;;;;;;;4.65;2.15;;;;;;;10.43;100.00;99306.81;15274885;19;20380;-56
2023/09/14 07:06:02;;;;;;;4.50;2.20;;;;;;;10.53;100.00;99304.09;15283646;19;20025;-58
2023/09/14 07:11:29;;;;;;;4.38;2.28;;;;;;;10.66;100.00;99290.38;15314490;19;20018;-52
2023/09/14 07:16:54;;;;;;;4.75;1.80;;;;;;;10.79;100.00;99282.88;15284701;19;20015;-56
2023/09/14 07:22:20;;;;;;;3.78;1.90;;;;;;;10.93;100.00;99281.59;15278566;19;20456;-58
2023/09/14 07:27:48;;;;;;;5.53;2.00;;;;;;;11.07;100.00;99275.78;15270609;19;20019;-56
2023/09/14 07:33:14;;;;;;;5.65;1.80;;;;;;;11.21;100.00;99276.31;15286934;19;20033;-58
2023/09/14 07:38:39;;;;;;;3.22;1.80;;;;;;;11.36;100.00;99274.84;15283051;19;20416;-57
2023/09/14 07:44:08;;;;;;;6.43;1.80;;;;;;;11.53;100.00;99262.47;15270986;19;20017;-58
2023/09/14 07:49:40;;;;;;;4.05;1.77;;;;;;;11.72;100.00;99293.09;15278133;19;20042;-56
2023/09/14 07:55:07;;;;;;;6.73;1.90;;;;;;;11.96;100.00;99260.16;15272988;19;20007;-58
2023/09/14 08:00:34;;;;;;;6.13;1.58;;;;;;;12.19;100.00;99219.25;15263882;19;20335;-51
2023/09/14 08:06:00;;;;;;;4.63;1.50;;;;;;;12.40;100.00;99174.91;15269626;19;20031;-56
2023/09/14 08:11:33;;;;;;;3.45;1.70;;;;;;;12.51;100.00;99180.09;15266954;19;20101;-55
2023/09/14 08:17:08;;;;;;;4.03;1.52;;;;;;;12.62;100.00;99174.44;15262071;19;20019;-54
2023/09/14 08:22:35;;;;;;;5.32;1.50;;;;;;;12.68;100.00;99148.63;15266807;19;20021;-55
2023/09/14 08:28:01;;;;;;;3.90;1.50;;;;;;;12.76;100.00;99153.22;15267936;19;20022;-51
2023/09/14 08:33:30;;;;;;;5.35;1.70;;;;;;;12.87;100.00;99153.00;15262120;19;20066;-55
2023/09/14 08:38:54;;;;;;;5.15;1.42;;;;;;;12.99;100.00;99166.25;15267819;19;20011;-54
2023/09/14 08:44:36;;;;;;;3.08;1.30;;;;;;;13.11;100.00;99124.41;15264348;19;20015;-55
2023/09/14 08:50:04;;;;;;;4.80;1.50;;;;;;;13.25;100.00;99104.84;15276700;19;20105;-51
2023/09/14 08:55:32;;;;;;;3.90;1.65;;;;;;;13.33;100.00;99103.22;15280218;19;20360;-54
2023/09/14 09:00:59;;;;;;;4.47;1.60;;;;;;;13.47;100.00;99101.75;15279994;19;20017;-52
2023/09/14 09:06:27;;;;;;;4.03;1.60;;;;;;;13.55;100.00;99101.78;15271319;19;20034;-52
2023/09/14 09:11:53;;;;;;;3.58;1.50;;;;;;;13.73;100.00;99101.69;15267299;19;20023;-50
2023/09/14 09:17:19;;;;;;;5.68;1.65;;;;;;;13.89;100.00;99110.88;15277055;19;20010;-50
2023/09/14 09:22:49;;;;;;;6.53;1.60;;;;;;;14.03;100.00;99112.94;15269815;19;20026;-49
2023/09/14 09:28:14;;;;;;;4.05;1.50;;;;;;;14.08;100.00;99102.44;15277599;19;20023;-50
2023/09/14 09:33:43;;;;;;;3.40;1.40;;;;;;;14.11;100.00;99082.31;15278059;19;20014;-49
2023/09/14 09:39:13;;;;;;;3.45;1.58;;;;;;;14.14;100.00;99068.41;15275051;19;20018;-49
2023/09/14 09:44:38;;;;;;;3.85;1.50;;;;;;;14.18;100.00;99070.59;15276964;19;20018;-49
2023/09/14 09:50:03;;;;;;;4.18;1.52;;;;;;;14.28;100.00;99083.16;15276121;19;20029;-49
2023/09/14 09:55:34;;;;;;;2.38;1.30;;;;;;;14.46;100.00;99069.44;15274981;19;20022;-52
2023/09/14 10:01:00;;;;;;;2.90;1.40;;;;;;;14.74;100.00;99069.06;15274790;19;20022;-49
2023/09/14 10:06:24;;;;;;;2.05;1.10;;;;;;;14.85;100.00;99051.59;15277918;19;20690;-49
2023/09/14 10:11:53;;;;;;;2.47;1.25;;;;;;;15.02;100.00;99064.09;15265458;19;20010;-49
2023/09/14 10:17:24;;;;;;;2.13;1.13;;;;;;;15.16;100.00;99056.25;15276539;19;20451;-49
2023/09/14 10:22:51;;;;;;;3.10;1.50;;;;;;;15.27;100.00;99064.00;15273071;19;20035;-50
2023/09/14 10:28:20;;;;;;;2.17;1.20;;;;;;;15.47;100.00;99056.28;15275789;19;20499;-52
2023/09/14 10:33:47;;;;;;;2.50;1.20;;;;;;;15.67;100.00;99051.25;15272343;19;20342;-49
2023/09/14 10:39:16;;;;;;;3.20;1.30;;;;;;;15.92;100.00;99053.84;15270346;19;20085;-50
2023/09/14 10:44:44;;;;;;;4.30;1.27;;;;;;;16.18;100.00;99047.19;15273421;19;20011;-49
2023/09/14 10:50:10;;;;;;;2.58;1.33;;;;;;;16.40;100.00;99041.91;15272839;19;20022;-49
2023/09/14 10:55:38;;;;;;;1.20;1.00;;;;;;;16.59;100.00;99040.53;15272064;19;20024;-53
2023/09/14 11:01:09;;;;;;;1.50;1.00;;;;;;;16.80;100.00;99028.94;15272988;19;20373;-49
2023/09/14 11:06:50;;;;;;;2.53;1.27;;;;;;;16.96;100.00;99036.09;15275126;19;20017;-50
2023/09/14 11:12:28;;;;;;;1.50;0.95;;;;;;;17.17;100.00;99024.44;15257343;19;20029;-50
2023/09/14 11:17:57;;;;;;;1.50;1.00;;;;;;;17.36;100.00;99016.72;15273664;19;20455;-49
2023/09/14 11:23:24;;;;;;;1.67;1.00;;;;;;;17.53;100.00;99003.72;15268907;19;20020;-52
2023/09/14 11:28:52;;;;;;;2.17;1.00;;;;;;;17.67;100.00;99010.16;15267287;19;20031;-52
2023/09/14 11:34:24;;;;;;;3.58;1.05;;;;;;;17.80;100.00;99009.44;15270314;19;20032;-49
2023/09/14 11:39:57;;;;;;;1.23;0.90;;;;;;;17.84;100.00;99010.75;15270170;19;20019;-50
2023/09/14 11:45:27;;;;;;;1.80;1.10;;;;;;;18.02;100.00;98991.25;15261291;19;20025;-52
2023/09/14 11:50:58;;;;;;;1.65;1.10;;;;;;;18.14;100.00;98991.56;15269335;19;20033;-49
2023/09/14 11:56:26;;;;;;;2.22;1.00;;;;;;;18.17;100.00;98989.28;15271950;19;20021;-51
2023/09/14 12:01:51;;;;;;;2.25;1.10;;;;;;;18.20;100.00;98984.47;15264714;19;20839;-50
2023/09/14 12:07:21;;;;;;;2.22;1.02;;;;;;;18.21;100.00;98983.44;15272692;19;20018;-50
2023/09/14 12:12:47;;;;;;;2.90;1.17;;;;;;;18.15;100.00;98982.34;15269733;19;20010;-50
2023/09/14 12:18:12;;;;;;;2.47;1.10;;;;;;;18.12;100.00;98980.00;15268046;19;20012;-51
2023/09/14 12:23:43;;;;;;;2.63;0.93;;;;;;;18.00;100.00;98985.16;15269248;19;20363;-51
2023/09/14 12:29:09;;;;;;;1.25;0.98;;;;;;;17.96;100.00;98989.28;15273586;19;20007;-50
2023/09/14 12:34:35;;;;;;;1.65;0.90;;;;;;;17.85;100.00;98983.31;15267903;19;20028;-50
2023/09/14 12:40:02;;;;;;;1.30;1.00;;;;;;;17.92;100.00;98977.09;15271776;19;20013;-50
2023/09/14 12:45:30;;;;;;;1.35;1.10;;;;;;;18.15;100.00;98969.56;15269110;19;20013;-51
2023/09/14 12:50:54;;;;;;;1.42;1.00;;;;;;;18.48;100.00;98976.28;15263348;19;20011;-50
2023/09/14 12:56:24;;;;;;;1.38;1.00;;;;;;;18.84;100.00;98964.34;15271289;19;20014;-51
2023/09/14 13:01:48;;;;;;;1.58;1.17;;;;;;;18.96;100.00;98967.41;15263293;19;20018;-50
2023/09/14 13:07:17;;;;;;;1.75;0.98;;;;;;;19.25;100.00;98970.84;15258297;19;20014;-52
2023/09/14 13:12:46;;;;;;;2.97;0.93;;;;;;;19.65;100.00;98960.06;15262833;19;20139;-51
2023/09/14 13:18:12;;;;;;;1.15;0.90;;;;;;;19.97;100.00;98963.06;15268674;19;20052;-51
2023/09/14 13:23:39;;;;;;;2.00;1.08;;;;;;;19.86;100.00;98969.16;15259790;19;20066;-52
2023/09/14 13:29:07;;;;;;;1.33;0.90;;;;;;;19.49;100.00;98963.16;15270658;19;20509;-53
2023/09/14 13:34:31;;;;;;;2.13;1.00;;;;;;;19.40;100.00;98959.78;15277888;19;20010;-51
2023/09/14 13:39:56;;;;;;;2.05;1.00;;;;;;;19.28;100.00;98965.00;15277289;19;20011;-51
2023/09/14 13:45:24;;;;;;;1.55;1.05;;;;;;;19.58;100.00;98948.25;15276958;19;20444;-52
2023/09/14 13:50:49;;;;;;;2.25;0.98;;;;;;;19.99;100.00;98950.03;15272534;19;20026;-52
2023/09/14 13:56:14;;;;;;;1.52;1.00;;;;;;;20.21;100.00;98947.09;15273062;19;20019;-50
2023/09/14 14:01:42;;;;;;;2.13;1.10;;;;;;;20.30;100.00;98939.50;15277683;19;20332;-51
2023/09/14 14:07:07;;;;;;;2.08;1.10;;;;;;;20.77;100.00;98934.81;15277480;19;20098;-51
2023/09/14 14:12:33;;;;;;;2.38;1.27;;;;;;;21.16;100.00;98932.13;15273937;19;20049;-53
2023/09/14 14:18:00;;;;;;;1.98;1.30;;;;;;;21.52;100.00;98930.69;15279874;19;20404;-52
2023/09/14 14:23:25;;;;;;;1.52;1.05;;;;;;;21.76;100.00;98930.97;15276227;19;20022;-54
2023/09/14 14:28:49;;;;;;;2.33;1.20;;;;;;;21.54;100.00;98939.53;15262681;19;20471;-51
2023/09/14 14:34:17;;;;;;;1.42;1.20;;;;;;;21.16;100.00;98934.03;15272730;19;20360;-51
2023/09/14 14:39:41;;;;;;;1.63;1.20;;;;;;;20.81;100.00;98921.53;15273210;19;20019;-51
2023/09/14 14:45:08;;;;;;;2.35;1.20;;;;;;;20.56;100.00;98916.72;15264712;19;20024;-50
2023/09/14 14:50:35;;;;;;;2.67;1.40;;;;;;;20.54;100.00;98912.53;15272420;19;20065;-53
2023/09/14 14:56:00;;;;;;;1.83;1.35;;;;;;;20.70;100.00;98917.50;15270909;19;20070;-50
2023/09/14 15:01:25;;;;;;;3.58;1.30;;;;;;;21.31;100.00;98922.78;15259909;19;20030;-51
2023/09/14 15:06:53;;;;;;;1.95;1.30;;;;;;;21.60;100.00;98924.13;15271663;19;20046;-54
2023/09/14 15:12:32;;;;;;;1.30;1.20;;;;;;;21.91;100.00;98921.59;15269103;19;20041;-55
2023/09/14 15:17:57;;;;;;;1.35;1.23;;;;;;;22.25;100.00;98922.13;15256213;19;20027;-57
2023/09/14 15:23:24;;;;;;;3.40;1.20;;;;;;;22.35;100.00;98930.69;15270227;19;20043;-55
2023/09/14 15:28:49;;;;;;;2.03;1.30;;;;;;;21.98;100.00;98922.34;15272920;19;20026;-52
2023/09/14 15:34:14;;;;;;;2.00;1.35;;;;;;;21.54;100.00;98916.72;15270613;19;20019;-55
2023/09/14 15:39:43;;;;;;;2.10;1.25;;;;;;;21.12;100.00;98908.97;15270211;19;20009;-52
2023/09/14 15:45:08;;;;;;;3.13;1.30;;;;;;;20.79;100.00;98909.94;15269328;19;20037;-55
2023/09/14 15:50:34;;;;;;;2.17;1.60;;;;;;;20.50;100.00;98911.25;15268770;19;20014;-55
2023/09/14 15:56:02;;;;;;;3.38;1.67;;;;;;;20.60;100.00;98912.50;15263981;19;20014;-53
2023/09/14 16:01:27;;;;;;;12.18;4.65;;;;;;;20.82;100.00;98911.41;15263597;19;20466;-54
2023/09/14 16:06:51;;;;;;;6.95;3.30;;;;;;;21.19;100.00;98908.94;15267174;19;20813;-54
2023/09/14 16:12:19;;;;;;;7.47;3.40;;;;;;;21.50;100.00;98910.84;15265781;19;20363;-56
2023/09/14 16:17:50;;;;;;;3.38;2.08;;;;;;;21.84;100.00;98911.50;15267782;19;20030;-51
2023/09/14 16:23:15;;;;;;;1.70;1.30;;;;;;;22.06;100.00;98916.59;15265454;19;20011;-53
2023/09/14 16:28:42;;;;;;;2.65;1.40;;;;;;;22.06;100.00;98913.84;15269004;19;20027;-54
2023/09/14 16:34:07;;;;;;;3.90;1.42;;;;;;;22.17;100.00;98909.53;15259757;19;20527;-54
2023/09/14 16:39:31;;;;;;;3.58;1.40;;;;;;;22.11;100.00;98905.78;15266423;19;20042;-52
2023/09/14 16:44:59;;;;;;;3.75;1.40;;;;;;;21.99;100.00;98902.09;15265210;19;20026;-55
2023/09/14 16:50:23;;;;;;;1.90;1.20;;;;;;;21.93;100.00;98913.97;15265512;19;20036;-54
2023/09/14 16:55:50;;;;;;;1.63;1.20;;;;;;;21.82;100.00;98923.75;15263270;19;20027;-55
2023/09/14 17:01:18;;;;;;;3.17;1.33;;;;;;;21.63;100.00;98920.94;15268536;19;20725;-55
2023/09/14 17:06:44;;;;;;;1.90;1.40;;;;;;;21.39;100.00;98915.16;15262253;19;20471;-55
2023/09/14 17:12:08;;;;;;;1.90;1.20;;;;;;;20.92;100.00;98909.91;15285280;19;20077;-53
2023/09/14 17:17:42;;;;;;;3.05;1.35;;;;;;;20.48;100.00;98903.28;15276995;19;20030;-55
2023/09/14 17:23:09;;;;;;;1.60;1.10;;;;;;;20.06;100.00;98910.88;15277708;19;20021;-56
2023/09/14 17:28:34;;;;;;;2.97;1.20;;;;;;;19.67;100.00;98911.50;15281931;19;20045;-55
2023/09/14 17:34:03;;;;;;;2.33;1.30;;;;;;;19.20;100.00;98907.81;15282044;19;20016;-55
2023/09/14 17:39:29;;;;;;;1.77;1.15;;;;;;;18.79;100.00;98912.25;15276046;19;20078;-54
2023/09/14 17:44:55;;;;;;;1.85;1.00;;;;;;;18.40;100.00;98920.03;15277695;19;20552;-52
2023/09/14 17:50:22;;;;;;;2.42;1.05;;;;;;;18.02;100.00;98917.66;15277227;19;20094;-55
2023/09/14 17:55:48;;;;;;;1.65;1.00;;;;;;;17.67;100.00;98920.25;15273656;19;20018;-54
2023/09/14 18:01:15;;;;;;;2.75;1.20;;;;;;;17.35;100.00;98922.41;15216674;19;20404;-56
2023/09/14 18:06:43;;;;;;;1.77;1.20;;;;;;;17.08;100.00;98930.31;15274335;19;20014;-54
2023/09/14 18:12:07;;;;;;;1.13;1.00;;;;;;;16.86;100.00;98937.53;15269845;19;20375;-54
2023/09/14 18:17:39;;;;;;;2.30;1.25;;;;;;;16.60;100.00;98941.56;15274457;19;20011;-52
2023/09/14 18:23:07;;;;;;;2.13;1.20;;;;;;;16.32;100.00;98951.22;15278889;19;20026;-54
2023/09/14 18:28:33;;;;;;;2.38;1.13;;;;;;;16.10;100.00;98957.56;15268235;19;20463;-54
2023/09/14 18:33:58;;;;;;;1.83;1.20;;;;;;;15.87;100.00;98963.88;15274299;19;20010;-55
2023/09/14 18:39:25;;;;;;;1.88;1.08;;;;;;;15.67;100.00;98967.06;15278450;19;20038;-55
2023/09/14 18:44:50;;;;;;;4.72;1.30;;;;;;;15.53;100.00;98970.53;15267302;19;20642;-55
2023/09/14 18:50:16;;;;;;;1.42;1.10;;;;;;;15.37;100.00;98976.91;15273668;19;20018;-55
2023/09/14 18:55:56;;;;;;;1.85;1.30;;;;;;;15.15;100.00;98981.25;15274272;19;20481;-60
2023/09/14 19:01:22;;;;;;;1.17;0.90;;;;;;;14.97;100.00;98989.66;15262757;19;20018;-56
2023/09/14 19:06:50;;;;;;;1.60;1.02;;;;;;;14.78;100.00;98991.75;15267484;19;20041;-54
2023/09/14 19:12:18;;;;;;;1.83;1.05;;;;;;;14.62;100.00;98993.47;15277893;19;20010;-54
2023/09/14 19:17:49;;;;;;;2.45;1.10;;;;;;;14.47;100.00;98998.75;15265573;19;20025;-55
2023/09/14 19:23:15;;;;;;;1.27;1.13;;;;;;;14.35;100.00;99002.84;15275696;19;20074;-53
2023/09/14 19:28:43;;;;;;;2.53;1.00;;;;;;;14.25;100.00;98996.75;15266644;19;20018;-51
2023/09/14 19:34:08;;;;;;;1.48;0.98;;;;;;;14.12;100.00;98994.53;15270789;19;20078;-56
2023/09/14 19:39:33;;;;;;;2.58;1.20;;;;;;;14.00;100.00;98997.59;15272175;19;20017;-54
2023/09/14 19:45:03;;;;;;;2.50;1.20;;;;;;;13.91;100.00;99000.50;15268192;19;20762;-55
2023/09/14 19:50:30;;;;;;;2.58;1.20;;;;;;;13.81;100.00;99006.94;15262489;19;20480;-54
2023/09/14 19:55:56;;;;;;;2.03;1.20;;;;;;;13.74;100.00;99016.72;15269829;19;20010;-54
2023/09/14 20:01:24;;;;;;;1.40;1.10;;;;;;;13.68;100.00;99014.69;15272190;19;20010;-56
2023/09/14 20:06:48;;;;;;;1.63;1.10;;;;;;;13.60;100.00;99015.53;15262786;19;20015;-52
2023/09/14 20:12:15;;;;;;;2.42;1.10;;;;;;;13.53;100.00;99014.47;15269330;19;20710;-54
2023/09/14 20:17:49;;;;;;;1.83;1.20;;;;;;;13.44;100.00;99019.03;15263095;19;20018;-50
2023/09/14 20:23:14;;;;;;;1.75;1.30;;;;;;;13.38;100.00;99019.66;15265377;19;20629;-53
2023/09/14 20:28:39;;;;;;;1.42;1.25;;;;;;;13.34;100.00;99016.44;15268426;19;20018;-54
2023/09/14 20:34:07;;;;;;;3.28;1.10;;;;;;;13.29;100.00;99018.78;15269628;19;20025;-56
2023/09/14 20:39:31;;;;;;;2.10;1.25;;;;;;;13.22;100.00;99020.44;15268350;19;20351;-54
2023/09/14 20:44:56;;;;;;;2.30;1.13;;;;;;;13.13;100.00;99019.56;15281503;19;20010;-52
2023/09/14 20:50:25;;;;;;;2.80;1.00;;;;;;;13.04;100.00;99017.84;15263040;19;20425;-50
2023/09/14 20:55:48;;;;;;;2.63;1.30;;;;;;;12.94;100.00;99013.41;15273758;19;20018;-51
2023/09/14 21:01:16;;;;;;;2.85;1.30;;;;;;;12.85;100.00;99008.97;15282798;19;20475;-55
2023/09/14 21:06:44;;;;;;;1.60;1.10;;;;;;;12.75;100.00;99009.09;15276773;19;20016;-54
2023/09/14 21:12:09;;;;;;;2.42;1.27;;;;;;;12.69;100.00;99017.00;15278523;19;20150;-51
2023/09/14 21:17:34;;;;;;;1.75;1.17;;;;;;;12.59;100.00;99007.16;15277405;19;20014;-51
2023/09/14 21:23:01;;;;;;;1.92;1.20;;;;;;;12.52;100.00;99006.09;15280869;19;20016;-54
2023/09/14 21:28:26;;;;;;;2.70;1.35;;;;;;;12.43;100.00;99004.31;15270289;19;20292;-51
2023/09/14 21:33:51;;;;;;;2.65;1.30;;;;;;;12.31;100.00;99009.16;15278340;19;20021;-50
2023/09/14 21:39:20;;;;;;;2.55;1.05;;;;;;;12.25;100.00;99004.38;15279526;19;20628;-53
2023/09/14 21:44:44;;;;;;;2.83;1.05;;;;;;;12.20;100.00;99012.13;15273066;19;20373;-56
2023/09/14 21:50:10;;;;;;;2.10;1.08;;;;;;;12.14;100.00;99008.19;15279657;19;20029;-54
2023/09/14 21:55:38;;;;;;;2.35;1.00;;;;;;;12.09;100.00;99005.97;15275073;19;20418;-50
2023/09/14 22:01:03;;;;;;;2.03;1.00;;;;;;;12.01;100.00;98998.66;15275738;19;20026;-53
2023/09/14 22:06:29;;;;;;;2.80;1.05;;;;;;;11.94;100.00;99005.63;15275601;19;20538;-51
2023/09/14 22:11:57;;;;;;;1.77;1.20;;;;;;;11.87;100.00;99002.72;15279015;19;20015;-53
2023/09/14 22:17:28;;;;;;;2.28;1.20;;;;;;;11.79;100.00;98999.09;15269124;19;20017;-50
2023/09/14 22:22:56;;;;;;;2.17;1.27;;;;;;;11.71;100.00;99003.41;15279094;19;20020;-52
2023/09/14 22:28:24;;;;;;;3.45;1.20;;;;;;;11.66;100.00;99002.16;15267271;19;20018;-52
2023/09/14 22:33:48;;;;;;;2.35;1.48;;;;;;;11.58;100.00;99002.97;15274810;19;20022;-54
2023/09/14 22:39:13;;;;;;;2.10;1.23;;;;;;;11.48;100.00;98997.63;15276376;19;20078;-49
2023/09/14 22:44:40;;;;;;;1.67;1.20;;;;;;;11.39;100.00;98999.38;15274402;19;20038;-53
2023/09/14 22:50:07;;;;;;;3.38;1.50;;;;;;;11.32;100.00;98997.44;15269945;19;20020;-51
2023/09/14 22:55:33;;;;;;;1.98;1.30;;;;;;;11.27;100.00;99000.59;15272181;19;20041;-51
2023/09/14 23:01:01;;;;;;;2.55;1.30;;;;;;;11.21;100.00;99001.22;15267422;19;20515;-54
2023/09/14 23:06:26;;;;;;;2.83;1.50;;;;;;;11.14;100.00;98994.72;15271197;19;20871;-51
2023/09/14 23:11:54;;;;;;;3.15;1.42;;;;;;;11.08;100.00;99002.41;15276592;19;20471;-54
2023/09/14 23:17:29;;;;;;;2.15;1.27;;;;;;;11.02;100.00;99007.56;15270755;19;20361;-55
2023/09/14 23:22:53;;;;;;;3.42;1.55;;;;;;;10.97;100.00;99005.31;15277280;19;20014;-54
2023/09/14 23:28:34;;;;;;;2.95;1.60;;;;;;;10.92;100.00;99002.19;15335801;19;20065;-55
2023/09/14 23:34:00;;;;;;;2.60;1.42;;;;;;;10.88;100.00;99001.66;15337482;19;20398;-56
2023/09/14 23:39:25;;;;;;;2.35;1.50;;;;;;;10.83;100.00;98997.72;15345193;19;20014;-55
2023/09/14 23:44:53;;;;;;;2.30;1.73;;;;;;;10.75;100.00;99006.53;15343541;19;20062;-56
2023/09/14 23:50:19;;;;;;;3.28;2.00;;;;;;;10.69;100.00;99013.38;15339909;19;20522;-54
2023/09/14 23:55:43;;;;;;;3.08;1.90;;;;;;;10.65;100.00;99017.34;15340231;19;20014;-51
